Airfield :
LOGIN :

Register | Disclaimer

   EN    FR    IT 

 










Legend :    VFR   Marginal VFR   IFR   Intensive IFR   Very Intensive IFR
Visi :
Ceiling :
>= 8 km
>= 3000ft
5 to 8 km
1000 to 3000 ft
1500m to 5 km
500 to 1000 ft
800 to 1500m
200 to 500 ft
< 800m
< 200 ft
Symbols :   Thunderstorms  Fog  Heavy snow  Heavy precipitations  Wind > 20 kt
SIGMETs :     Misc.  Thunderstorms  Icing  Turbulence  Mountain Waves  Volcanic Ashes







- Airport Elevation : 209 ft
- IATA code : CLY
- Download approach charts


LFKC - Calvi

CURRENT METAR :
  • 220030Z AUTO 00000KT 9999 SCT028 BKN035 24/21 Q1012

EXPIRED METARs :
  • 220000Z AUTO VRB01KT 9999 FEW022 BKN029 BKN035 24/21 Q1012
  • 212330Z AUTO 17002KT 9999 SCT022 BKN027 BKN033 24/21 Q1012
  • 212300Z AUTO 16002KT 9999 SCT029 BKN034 BKN040 25/21 Q1012
  • 212230Z AUTO 00000KT 9999 SCT025 SCT030 BKN036 25/22 Q1012
  • 212200Z AUTO 00000KT 9999 FEW030 BKN038 BKN045 25/22 Q1012

TAF TAF LFKC
Valid from the 21 at 15:00 until the 22 at 15:00 UTC


211400Z 2115/2215 34012KT 9999 BKN040
BECMG 2118/2121 18006KT BKN015 BKN200
BECMG 2206/2209 34007KT FEW040 TX29/2212Z TN20/2203Z
ATIS : +33 4 95 65 82 49
No reported NOTAMs for that airfield.



MET'MAP, your aeronautical weather chart ! - Copyright ORBIFLY December 2007 - Disclaimer

ORBIFLY MET'MAP TEAM :

Programming & Development : Alexandra Zaïnal
Concept & Development : Baudouin d'Aumeries
Co-Development & Prog : Marc-Olivier Méhu
Technical & hardware support : Manuel Goepfert

Contact : metmap@orbifly.com




SOURCES & CREDITS :

   NOAA